createdAt,value
2022-07-28T00:04:40.198Z,24.43
2022-07-28T00:09:44.111Z,24.43
2022-07-28T00:14:47.906Z,24.40
2022-07-28T00:19:51.792Z,24.37
2022-07-28T00:24:55.216Z,24.35
2022-07-28T00:29:58.625Z,24.35
2022-07-28T00:35:02.531Z,24.33
2022-07-28T00:40:08.826Z,24.32
2022-07-28T00:45:13.678Z,24.30
2022-07-28T00:50:17.244Z,24.26
2022-07-28T00:55:21.815Z,24.25
2022-07-28T01:00:25.238Z,24.25
2022-07-28T01:05:44.478Z,24.21
2022-07-28T01:11:02.358Z,24.18
2022-07-28T01:16:07.983Z,24.22
2022-07-28T01:21:15.487Z,24.19
2022-07-28T01:26:38.604Z,24.20
2022-07-28T01:31:46.587Z,24.19
2022-07-28T01:36:57.422Z,24.18
2022-07-28T01:42:05.238Z,24.14
2022-07-28T01:47:10.596Z,24.12
2022-07-28T01:52:16.075Z,24.11
2022-07-28T01:57:21.014Z,24.13
2022-07-28T02:02:27.278Z,24.16
2022-07-28T02:07:32.756Z,24.18
2022-07-28T02:12:38.348Z,24.20
2022-07-28T02:18:02.978Z,24.21
2022-07-28T02:23:08.909Z,24.20
2022-07-28T02:28:14.086Z,24.19
2022-07-28T02:33:29.617Z,24.16
2022-07-28T02:38:51.965Z,24.13
2022-07-28T02:44:05.543Z,24.13
2022-07-28T02:49:23.722Z,24.12
2022-07-28T02:54:30.430Z,24.14
2022-07-28T02:59:36.405Z,24.16
2022-07-28T03:04:41.275Z,24.15
2022-07-28T03:09:47.302Z,24.19
2022-07-28T03:14:55.146Z,24.23
2022-07-28T03:20:01.220Z,24.26
2022-07-28T03:25:11.037Z,24.28
2022-07-28T03:30:23.268Z,24.26
2022-07-28T03:35:35.362Z,24.24
2022-07-28T03:40:39.732Z,24.26
2022-07-28T03:45:46.796Z,24.31
2022-07-28T03:50:50.540Z,24.36
2022-07-28T03:55:54.460Z,24.40
2022-07-28T04:00:59.057Z,24.52
2022-07-28T04:06:02.674Z,24.65
2022-07-28T04:11:06.240Z,24.72
2022-07-28T04:16:09.769Z,24.86
2022-07-28T04:21:14.481Z,25.00
2022-07-28T04:26:18.432Z,25.14
2022-07-28T04:31:22.236Z,25.28
2022-07-28T04:36:34.367Z,25.37
2022-07-28T04:41:38.339Z,25.37
2022-07-28T04:46:41.982Z,25.35
2022-07-28T04:51:45.865Z,25.34
2022-07-28T04:56:50.374Z,25.43
2022-07-28T05:01:54.017Z,25.51
2022-07-28T05:06:58.045Z,25.65
2022-07-28T05:12:01.691Z,25.90
2022-07-28T05:17:05.300Z,26.05
2022-07-28T05:22:09.067Z,26.06
2022-07-28T05:27:12.455Z,26.13
2022-07-28T05:32:17.551Z,26.18
2022-07-28T05:37:21.394Z,26.41
2022-07-28T05:42:24.927Z,27.05
2022-07-28T05:47:28.468Z,27.46
2022-07-28T05:52:32.271Z,27.61
2022-07-28T05:57:36.819Z,27.71
2022-07-28T06:02:41.263Z,27.77
2022-07-28T06:07:45.858Z,27.83
2022-07-28T06:12:55.733Z,28.04
2022-07-28T06:18:03.295Z,28.30
2022-07-28T06:23:06.956Z,28.52
2022-07-28T06:28:10.368Z,28.69
2022-07-28T06:33:17.272Z,29.23
2022-07-28T06:38:21.492Z,32.18
2022-07-28T06:43:25.162Z,35.07
2022-07-28T06:48:29.465Z,37.55
2022-07-28T06:53:34.570Z,38.65
2022-07-28T06:58:38.620Z,38.23
2022-07-28T07:03:43.473Z,37.46
2022-07-28T07:08:49.099Z,37.09
2022-07-28T07:13:55.139Z,37.16
2022-07-28T07:18:58.622Z,37.37
2022-07-28T07:24:02.096Z,37.69
2022-07-28T07:29:06.748Z,38.14
2022-07-28T07:34:10.159Z,38.44
2022-07-28T07:39:13.687Z,38.66
2022-07-28T07:44:20.124Z,38.42
2022-07-28T07:49:23.706Z,37.70
2022-07-28T07:54:29.708Z,36.84
2022-07-28T07:59:32.981Z,36.16
2022-07-28T08:04:37.246Z,35.62
2022-07-28T08:09:41.719Z,35.18
2022-07-28T08:14:47.747Z,34.78
2022-07-28T08:19:51.514Z,34.46
2022-07-28T08:24:56.269Z,34.37
2022-07-28T08:29:59.760Z,34.33
2022-07-28T08:35:30.349Z,34.39
2022-07-28T08:40:30.163Z,34.38
2022-07-28T08:45:37.020Z,34.44
2022-07-28T08:50:42.927Z,34.29
2022-07-28T08:55:47.904Z,34.17
2022-07-28T09:00:51.271Z,34.08
2022-07-28T09:05:55.715Z,33.97
2022-07-28T09:10:59.598Z,33.90
2022-07-28T09:16:03.309Z,33.72
2022-07-28T09:21:07.203Z,33.54
2022-07-28T09:26:12.745Z,33.53
2022-07-28T09:31:17.590Z,33.35
2022-07-28T09:36:21.715Z,33.18
2022-07-28T09:41:28.985Z,32.94
2022-07-28T09:46:32.824Z,32.88
2022-07-28T09:51:37.549Z,32.74
2022-07-28T09:56:43.454Z,32.59
2022-07-28T10:01:54.392Z,32.51
2022-07-28T10:07:01.455Z,32.38
2022-07-28T10:12:35.404Z,32.30
2022-07-28T10:17:39.008Z,32.17
2022-07-28T10:22:43.722Z,32.13
2022-07-28T10:27:49.439Z,32.10
2022-07-28T10:32:54.805Z,32.10
2022-07-28T10:38:05.687Z,31.99
2022-07-28T10:43:09.378Z,31.90
2022-07-28T10:48:13.685Z,31.84
2022-07-28T10:53:41.076Z,31.76
2022-07-28T10:59:04.537Z,31.69
2022-07-28T11:04:08.883Z,31.57
2022-07-28T11:09:18.215Z,31.53
2022-07-28T11:14:24.868Z,31.49
2022-07-28T11:20:16.239Z,31.41
2022-07-28T11:25:08.025Z,31.48
2022-07-28T11:30:27.822Z,31.47
2022-07-28T11:35:52.019Z,31.39
2022-07-28T11:40:57.652Z,31.29
2022-07-28T11:46:09.869Z,31.15
2022-07-28T11:51:19.040Z,31.05
2022-07-28T11:56:23.725Z,30.96
2022-07-28T12:01:31.806Z,30.93
2022-07-28T12:06:37.029Z,30.84
2022-07-28T12:11:41.902Z,30.75
2022-07-28T12:16:49.804Z,30.77
2022-07-28T12:21:56.334Z,30.66
2022-07-28T12:27:00.179Z,30.50
2022-07-28T12:32:05.217Z,30.39
2022-07-28T12:37:10.003Z,30.31
2022-07-28T12:42:14.906Z,30.26
2022-07-28T12:47:26.652Z,30.21
2022-07-28T12:52:30.149Z,30.13
2022-07-28T12:57:49.390Z,30.11
2022-07-28T13:02:56.819Z,30.06
2022-07-28T13:08:02.456Z,30.05
2022-07-28T13:13:07.725Z,30.05
2022-07-28T13:18:11.909Z,29.95
2022-07-28T13:23:16.136Z,29.96
2022-07-28T13:28:27.266Z,29.98
2022-07-28T13:33:30.743Z,29.98
2022-07-28T13:38:34.375Z,29.91
2022-07-28T13:43:37.944Z,29.85
2022-07-28T13:48:58.127Z,29.80
2022-07-28T13:54:03.711Z,29.75
2022-07-28T13:59:08.871Z,29.72
2022-07-28T14:04:17.153Z,29.70
2022-07-28T14:09:21.632Z,29.65
2022-07-28T14:14:25.517Z,29.64
2022-07-28T14:19:38.230Z,29.64
2022-07-28T14:24:43.137Z,29.62
2022-07-28T14:29:46.777Z,29.57
2022-07-28T14:34:53.487Z,29.56
2022-07-28T14:40:01.898Z,29.51
2022-07-28T14:45:07.065Z,29.50
2022-07-28T14:50:10.978Z,29.43
2022-07-28T14:55:14.863Z,29.34
2022-07-28T15:00:18.560Z,29.27
2022-07-28T15:05:23.014Z,29.16
2022-07-28T15:10:26.671Z,29.12
2022-07-28T15:15:30.075Z,29.08
2022-07-28T15:20:33.291Z,29.03
2022-07-28T15:25:38.213Z,28.96
2022-07-28T15:30:49.253Z,28.83
2022-07-28T15:35:58.133Z,28.75
2022-07-28T15:41:03.585Z,28.64
2022-07-28T15:46:08.869Z,28.50
2022-07-28T15:51:14.117Z,28.38
2022-07-28T15:56:20.640Z,28.26
2022-07-28T16:01:25.654Z,28.12
2022-07-28T16:06:30.469Z,28.02
2022-07-28T16:11:33.945Z,27.88
2022-07-28T16:16:37.928Z,27.74
2022-07-28T16:21:42.289Z,27.62
2022-07-28T16:26:51.005Z,27.48
2022-07-28T16:31:57.100Z,27.36
2022-07-28T16:37:06.420Z,27.25
2022-07-28T16:42:10.039Z,27.17
2022-07-28T16:47:17.357Z,27.09
2022-07-28T16:52:21.891Z,26.99
2022-07-28T16:57:26.089Z,26.89
2022-07-28T17:02:29.845Z,26.82
2022-07-28T17:07:33.686Z,26.76
2022-07-28T17:12:40.329Z,26.69
2022-07-28T17:17:46.379Z,26.64
2022-07-28T17:22:49.870Z,26.58
2022-07-28T17:27:53.451Z,26.54
2022-07-28T17:33:08.713Z,26.52
2022-07-28T17:38:12.400Z,26.48
2022-07-28T17:43:15.647Z,26.44
2022-07-28T17:48:19.096Z,26.41
2022-07-28T17:53:23.368Z,26.37
2022-07-28T17:58:29.642Z,26.35
2022-07-28T18:03:57.842Z,26.32
2022-07-28T18:08:57.472Z,26.29
2022-07-28T18:14:05.653Z,26.26
2022-07-28T18:19:09.284Z,26.24
2022-07-28T18:24:13.752Z,26.22
2022-07-28T18:29:17.457Z,26.19
2022-07-28T18:34:23.393Z,26.14
2022-07-28T18:39:28.775Z,26.13
2022-07-28T18:44:32.807Z,26.11
2022-07-28T18:49:37.766Z,26.09
2022-07-28T18:54:41.589Z,26.08
2022-07-28T18:59:50.169Z,26.06
2022-07-28T19:06:24.967Z,25.96
2022-07-28T19:11:29.956Z,25.95
2022-07-28T19:16:33.482Z,25.96
2022-07-28T19:21:36.960Z,25.94
2022-07-28T19:26:47.752Z,25.92
2022-07-28T19:31:51.224Z,25.89
2022-07-28T19:36:54.545Z,25.88
2022-07-28T19:41:58.031Z,25.86
2022-07-28T19:47:01.400Z,25.84
2022-07-28T19:52:06.576Z,25.82
2022-07-28T19:57:12.385Z,25.81
2022-07-28T20:02:18.225Z,25.78
2022-07-28T20:07:21.800Z,25.78
2022-07-28T20:12:27.001Z,25.76
2022-07-28T20:17:39.077Z,25.74
2022-07-28T20:22:43.518Z,25.76
2022-07-28T20:27:47.116Z,25.74
2022-07-28T20:32:50.927Z,25.76
2022-07-28T20:37:54.275Z,25.77
2022-07-28T20:42:57.943Z,25.78
2022-07-28T20:48:01.357Z,25.79
2022-07-28T20:53:09.967Z,25.77
2022-07-28T20:58:13.695Z,25.76
2022-07-28T21:03:17.892Z,25.78
2022-07-28T21:08:21.370Z,25.79
2022-07-28T21:13:26.343Z,25.79
2022-07-28T21:18:30.972Z,25.80
2022-07-28T21:23:34.683Z,25.75
2022-07-28T21:28:39.259Z,25.70
2022-07-28T21:33:42.761Z,25.66
2022-07-28T21:38:46.483Z,25.61
2022-07-28T21:43:50.161Z,25.56
2022-07-28T21:48:55.275Z,25.51
2022-07-28T21:53:59.032Z,25.49
2022-07-28T21:59:02.809Z,25.44
2022-07-28T22:04:06.577Z,25.40
2022-07-28T22:09:10.199Z,25.37
2022-07-28T22:14:14.152Z,25.33
2022-07-28T22:19:17.791Z,25.28
2022-07-28T22:24:21.536Z,25.24
2022-07-28T22:29:25.242Z,25.19
2022-07-28T22:34:28.802Z,25.15
2022-07-28T22:39:33.263Z,25.12
2022-07-28T22:44:36.741Z,25.12
2022-07-28T22:49:40.328Z,25.10
2022-07-28T23:00:06.143Z,25.02
2022-07-28T23:05:10.927Z,25.00
2022-07-28T23:10:14.756Z,24.96
2022-07-28T23:15:20.522Z,24.92
2022-07-28T23:20:28.071Z,24.89
2022-07-28T23:25:32.069Z,24.83
2022-07-28T23:30:35.675Z,24.78
2022-07-28T23:35:40.578Z,24.72
2022-07-28T23:40:44.249Z,24.62
2022-07-28T23:45:47.798Z,24.64
2022-07-28T23:50:51.671Z,24.70
2022-07-28T23:55:55.293Z,24.78
